LIBD/BRI METAR and TAF weather

Enter ICAO airport designator
Station Type Date Time Source
LIBD METAR 2021/03/08 03:20 UTC NOAA

LIBD 080320Z 14004KT CAVOK 09/05 Q1017


Station Type Date Time Source
LIBD Decoded METAR 2021/03/08 03:20 UTC NOAA

Bari / Palese Macchie, Italy (LIBD) 41-08N 016-47E 49M
Mar 07, 2021 - 10:20 PM EST / 2021.03.08 0320 UTC
Wind: from the SE (140 degrees) at 5 MPH (4 KT):0
Visibility: greater than 7 mile(s):0
Temperature: 48 F (9 C)
Dew Point: 41 F (5 C)
Relative Humidity: 75%
Pressure (altimeter): 30.03 in. Hg (1017 hPa)
ob: LIBD 080320Z 14004KT CAVOK 09/05 Q1017
cycle: 3

Station Type Date Time Source
LIBD TAF 2021/03/07 18:21 UTC NOAA

TAF LIBD 071700Z 0718/0818 VRB05K CAVOK
BECMG 0800/0802 17010KT
BECMG 0812/0814 09010KT

Example: see airport list